Terminal Aerodrome Forecast
Issued by NWS

Current Version | Previous Version | Text Only | Print | Product List | Glossary On
Versions: 1 2 3 4 5 6 7 8 9 10 11 12 13 14 15
386
FTAK31 PAJN 281127
TAFAJN
TAF
PAJN 281127Z 2812/2912 VRB03KT P6SM FEW005 BKN035 OVC050
      TEMPO 2812/2815 4SM BR
     FM282100 24006KT P6SM BKN040 OVC100
     FM290400 09004KT P6SM FEW010 BKN040 OVC100=

USA.gov is the U.S. government's official web portal to all federal, state and local government web resources and services.